Time;durP1;ratioP1;P1;durP2;ratioP2;P2;SDS_P1;SDS_P2;PMS_P1;PMS_P2;Temp;Humidity;BMP_temperature;BMP_pressure;BME280_temperature;BME280_humidity;BME280_pressure;Samples;Min_cycle;Max_cycle;Signal;HPM_P1;HPM_P2
2023/02/11 00:02:04;;;;;;;;;57.60;46.60;;;;;5.58;43.59;100405.59;7735992;22;96827;-70
2023/02/11 00:05:08;;;;;;;;;55.20;45.00;;;;;5.55;43.20;100413.94;7735145;22;96973;-69
2023/02/11 00:08:15;;;;;;;;;52.25;44.00;;;;;5.55;43.11;100409.41;7708153;22;100026;-69
2023/02/11 00:11:21;;;;;;;;;53.20;43.00;;;;;5.58;42.67;100408.25;7736516;22;96169;-70
2023/02/11 00:14:24;;;;;;;;;57.50;44.25;;;;;5.53;42.80;100402.53;7709071;22;96335;-69
2023/02/11 00:17:29;;;;;;;;;50.20;42.00;;;;;5.53;42.83;100402.53;7735971;22;96363;-70
2023/02/11 00:20:32;;;;;;;;;52.00;43.00;;;;;5.45;42.80;100397.94;7708457;22;96590;-68
2023/02/11 00:23:36;;;;;;;;;53.00;43.00;;;;;5.37;43.13;100399.72;7735944;22;97511;-70
2023/02/11 00:26:39;;;;;;;;;52.00;41.60;;;;;5.34;43.06;100392.81;7708704;22;98266;-70
2023/02/11 00:29:42;;;;;;;;;49.00;41.00;;;;;5.22;43.38;100384.19;7708856;22;97014;-69
2023/02/11 00:32:47;;;;;;;;;52.00;43.00;;;;;5.17;43.67;100393.66;7735639;22;96995;-69
2023/02/11 00:35:50;;;;;;;;;56.60;46.00;;;;;5.12;43.80;100387.91;7682826;22;96565;-70
2023/02/11 00:38:56;;;;;;;;;55.80;43.00;;;;;5.14;43.60;100383.22;7735854;22;96269;-68
2023/02/11 00:41:59;;;;;;;;;54.00;43.00;;;;;5.11;43.49;100370.19;7708307;22;96587;-69
2023/02/11 00:45:03;;;;;;;;;53.40;43.00;;;;;5.03;43.71;100380.78;7707591;22;97221;-69
2023/02/11 00:48:08;;;;;;;;;50.00;40.60;;;;;5.03;43.67;100378.13;7736215;22;97404;-69
2023/02/11 00:51:12;;;;;;;;;51.20;41.20;;;;;5.01;43.58;100369.41;7707356;22;98323;-69
2023/02/11 00:54:15;;;;;;;;;49.00;39.60;;;;;4.98;43.66;100364.38;7707400;22;98420;-69
2023/02/11 00:57:18;;;;;;;;;50.00;40.00;;;;;4.94;43.57;100361.13;7734704;22;96695;-69
2023/02/11 01:00:22;;;;;;;;;49.40;41.20;;;;;4.94;43.48;100347.75;7736616;22;96443;-70
2023/02/11 01:03:26;;;;;;;;;48.75;39.50;;;;;4.92;43.56;100339.06;7682407;22;96642;-68
2023/02/11 01:06:30;;;;;;;;;48.40;39.00;;;;;4.92;43.70;100346.25;7734091;22;96312;-69
2023/02/11 01:09:34;;;;;;;;;46.00;36.40;;;;;4.86;43.83;100333.47;7735336;22;96479;-69
2023/02/11 01:12:37;;;;;;;;;47.80;38.80;;;;;4.76;44.09;100322.84;7707842;22;96569;-69
2023/02/11 01:15:41;;;;;;;;;49.00;39.00;;;;;4.68;44.31;100306.75;7682766;22;97014;-69
2023/02/11 01:18:46;;;;;;;;;49.80;39.40;;;;;4.67;43.89;100287.19;7708795;22;96503;-69
2023/02/11 01:21:49;;;;;;;;;47.00;39.00;;;;;4.59;44.54;100291.59;7708955;22;96254;-69
2023/02/11 01:24:57;;;;;;;;;50.00;40.00;;;;;4.58;44.34;100282.75;7707403;22;96438;-69
2023/02/11 01:28:00;;;;;;;;;47.25;38.50;;;;;4.59;44.49;100280.94;7735509;22;96195;-69
2023/02/11 01:31:06;;;;;;;;;42.40;35.20;;;;;4.62;44.34;100280.63;7734699;22;96509;-68
2023/02/11 01:34:11;;;;;;;;;45.50;38.00;;;;;4.52;44.49;100279.81;7680022;22;98829;-69
2023/02/11 01:37:14;;;;;;;;;46.00;36.60;;;;;4.58;44.53;100290.75;7733162;22;96319;-69
2023/02/11 01:40:18;;;;;;;;;48.00;38.25;;;;;4.63;44.23;100283.16;7732889;22;96922;-69
2023/02/11 01:43:22;;;;;;;;;47.60;39.00;;;;;4.58;44.15;100272.06;7706588;22;98323;-70
2023/02/11 01:46:31;;;;;;;;;45.40;36.40;;;;;4.56;44.11;100265.19;7706743;22;96495;-69
2023/02/11 01:49:39;;;;;;;;;45.00;37.00;;;;;4.50;44.65;100255.94;7706819;22;98278;-70
2023/02/11 01:52:45;;;;;;;;;41.80;34.40;;;;;4.48;44.65;100268.59;7706471;22;97087;-69
2023/02/11 01:59:18;;;;;;;;;48.50;39.25;;;;;4.39;44.77;100245.47;7681303;22;96585;-70
2023/02/11 02:02:26;;;;;;;;;42.80;36.00;;;;;4.28;44.96;100233.16;7681574;22;96799;-69
2023/02/11 02:05:37;;;;;;;;;45.00;35.00;;;;;4.34;44.63;100221.06;7681117;22;96814;-69
2023/02/11 02:08:46;;;;;;;;;39.80;33.40;;;;;4.41;44.81;100232.78;7706175;22;98456;-70
2023/02/11 02:11:51;;;;;;;;;40.00;33.00;;;;;4.32;44.69;100207.00;7706723;22;96901;-70
2023/02/11 02:15:18;;;;;;;;;44.25;36.00;;;;;4.47;44.27;100226.03;7705901;22;96327;-70
2023/02/11 02:18:34;;;;;;;;;42.40;35.00;;;;;4.47;44.53;100223.34;7706726;22;96360;-69
2023/02/11 02:22:30;;;;;;;;;47.20;36.00;;;;;4.50;44.30;100234.56;7706921;22;96297;-68
2023/02/11 02:25:59;;;;;;;;;47.00;38.60;;;;;4.57;44.12;100226.81;7518779;22;96778;-69
2023/02/11 02:29:27;;;;;;;;;44.75;35.75;;;;;4.56;44.30;100230.47;7732731;22;96198;-69
2023/02/11 02:32:40;;;;;;;;;40.00;34.40;;;;;4.54;44.27;100230.63;7733600;22;96780;-68
2023/02/11 02:35:53;;;;;;;;;43.00;35.33;;;;;4.57;44.14;100240.16;7707166;22;96834;-69
2023/02/11 02:39:01;;;;;;;;;39.60;33.60;;;;;4.63;43.96;100235.06;7706262;22;97740;-70
2023/02/11 02:42:05;;;;;;;;;39.40;33.00;;;;;4.73;43.89;100237.66;7734276;22;96371;-69
2023/02/11 02:45:11;;;;;;;;;35.40;32.20;;;;;4.80;43.79;100239.56;7733478;22;96248;-68
2023/02/11 02:48:29;;;;;;;;;36.80;32.20;;;;;4.87;43.71;100226.44;7733934;22;96869;-69
2023/02/11 02:52:06;;;;;;;;;42.80;34.80;;;;;4.96;43.77;100222.84;7705442;22;97608;-70
2023/02/11 02:55:26;;;;;;;;;43.00;35.60;;;;;5.00;43.73;100202.84;7712716;22;96339;-69
2023/02/11 02:58:53;;;;;;;;;44.75;35.00;;;;;4.99;43.57;100195.81;7706450;22;96296;-70
2023/02/11 03:02:06;;;;;;;;;42.20;34.40;;;;;5.05;43.79;100199.69;7733226;22;97436;-70
2023/02/11 03:05:18;;;;;;;;;42.80;35.00;;;;;4.99;43.72;100185.13;7705711;22;96499;-69
2023/02/11 03:08:27;;;;;;;;;42.25;35.75;;;;;4.98;43.76;100188.81;7706100;22;96814;-70
2023/02/11 03:11:30;;;;;;;;;40.00;32.60;;;;;4.99;43.56;100185.13;7708147;22;97445;-69
2023/02/11 03:14:36;;;;;;;;;46.40;36.00;;;;;5.03;43.50;100177.66;7735295;22;96433;-68
2023/02/11 03:17:42;;;;;;;;;44.00;35.00;;;;;5.00;43.49;100167.25;7708321;22;96271;-70
2023/02/11 03:20:50;;;;;;;;;40.00;34.20;;;;;4.93;43.98;100142.16;7734951;22;96413;-69
2023/02/11 03:23:56;;;;;;;;;43.50;35.75;;;;;4.92;44.04;100127.09;7681930;22;96944;-69
2023/02/11 03:27:06;;;;;;;;;38.40;33.00;;;;;4.76;43.98;100096.59;7706780;22;96564;-69
2023/02/11 03:30:15;;;;;;;;;34.00;30.00;;;;;4.81;44.22;100101.47;7735321;22;96351;-69
2023/02/11 03:33:25;;;;;;;;;40.00;33.00;;;;;4.83;44.33;100091.47;7734843;22;96486;-70
2023/02/11 03:36:39;;;;;;;;;38.00;32.00;;;;;4.93;44.09;100081.53;7735557;22;96896;-70
2023/02/11 03:39:48;;;;;;;;;41.00;33.00;;;;;4.95;44.04;100084.88;7708035;22;96414;-69
2023/02/11 03:42:57;;;;;;;;;34.80;31.80;;;;;4.71;44.61;100061.50;7735072;22;98101;-69
2023/02/11 03:46:02;;;;;;;;;39.80;33.80;;;;;4.72;44.54;100057.84;7735809;22;96415;-69
2023/02/11 03:49:12;;;;;;;;;40.25;33.75;;;;;4.82;44.57;100072.91;7707542;22;96743;-69
2023/02/11 03:52:20;;;;;;;;;31.60;28.40;;;;;4.82;44.61;100060.41;7735813;22;96906;-69
2023/02/11 03:55:26;;;;;;;;;37.50;32.00;;;;;4.93;44.63;100070.84;7735491;22;96989;-69
2023/02/11 03:58:30;;;;;;;;;36.40;32.00;;;;;5.12;44.01;100073.31;7708293;22;96694;-69
2023/02/11 04:01:33;;;;;;;;;35.80;32.00;;;;;5.17;44.22;100075.50;7707350;22;96914;-69
2023/02/11 04:04:36;;;;;;;;;34.60;30.60;;;;;5.26;43.82;100066.53;7681842;22;98528;-69
2023/02/11 04:07:41;;;;;;;;;40.75;33.00;;;;;5.31;43.99;100058.88;7735006;22;96218;-70
2023/02/11 04:10:44;;;;;;;;;35.80;31.80;;;;;5.35;43.94;100046.84;7735133;22;96430;-69
2023/02/11 04:13:48;;;;;;;;;32.75;30.25;;;;;5.42;43.66;100044.38;7735169;22;96607;-68
2023/02/11 04:16:51;;;;;;;;;33.00;30.00;;;;;5.47;43.78;100039.38;7707533;22;96474;-68
2023/02/11 04:19:54;;;;;;;;;35.00;31.60;;;;;5.52;43.69;100043.22;7734841;22;96220;-69
2023/02/11 04:22:59;;;;;;;;;37.00;32.00;;;;;5.60;43.72;100024.56;7708324;22;98130;-70
2023/02/11 04:26:02;;;;;;;;;36.20;31.60;;;;;5.59;43.53;100014.00;7735724;22;96300;-69
2023/02/11 04:29:06;;;;;;;;;40.00;33.00;;;;;5.62;43.39;100011.00;7735551;22;96381;-69
2023/02/11 04:32:11;;;;;;;;;37.00;32.60;;;;;5.65;43.47;99997.31;7735418;22;96452;-69
2023/02/11 04:35:14;;;;;;;;;35.40;30.80;;;;;5.61;43.54;99985.25;7708163;22;96551;-70
2023/02/11 04:38:19;;;;;;;;;37.20;33.00;;;;;5.71;43.56;99985.13;7736250;22;96429;-70
2023/02/11 04:41:22;;;;;;;;;36.75;32.00;;;;;5.73;43.81;99977.75;7708151;22;96585;-69
2023/02/11 04:44:26;;;;;;;;;38.60;33.00;;;;;5.73;43.65;99978.59;7736086;22;96318;-69
2023/02/11 04:47:29;;;;;;;;;33.00;30.40;;;;;5.73;43.67;99991.13;7708213;22;98722;-69
2023/02/11 04:50:32;;;;;;;;;37.40;31.60;;;;;5.72;43.96;99982.25;7682683;22;96535;-69
2023/02/11 04:53:37;;;;;;;;;38.20;31.20;;;;;5.81;43.64;99989.34;7735492;22;97498;-70
2023/02/11 04:56:40;;;;;;;;;35.00;31.60;;;;;5.76;43.76;99975.59;7735812;22;96201;-69
2023/02/11 04:59:44;;;;;;;;;32.20;30.00;;;;;5.76;43.86;99978.28;7735929;22;96678;-69
2023/02/11 05:02:48;;;;;;;;;32.50;30.00;;;;;5.79;44.21;99991.31;7705568;22;98980;-67
2023/02/11 05:05:51;;;;;;;;;37.75;31.00;;;;;5.75;44.31;99989.13;7681373;22;96581;-69
2023/02/11 05:08:56;;;;;;;;;39.20;33.00;;;;;5.80;44.32;100009.06;7734460;22;96921;-69
2023/02/11 05:11:59;;;;;;;;;36.00;32.20;;;;;5.92;43.86;100015.78;7735018;22;97009;-69
2023/02/11 05:15:03;;;;;;;;;45.40;35.40;;;;;5.92;43.72;100001.56;7735308;22;96364;-69
2023/02/11 05:18:06;;;;;;;;;39.40;32.00;;;;;5.91;43.75;99991.88;7735407;22;96671;-69
2023/02/11 05:21:12;;;;;;;;;40.00;33.33;;;;;5.87;43.89;99994.03;7682529;22;98260;-68
2023/02/11 05:24:17;;;;;;;;;37.00;32.00;;;;;5.84;43.74;99985.47;7708156;22;98135;-68
2023/02/11 05:27:20;;;;;;;;;39.75;32.00;;;;;5.80;44.18;99995.69;7707859;22;96810;-69
2023/02/11 05:30:23;;;;;;;;;37.40;32.00;;;;;5.81;44.01;99983.97;7734832;22;97466;-69
2023/02/11 05:33:27;;;;;;;;;40.60;33.00;;;;;5.84;44.08;99980.97;7735273;22;97617;-69
2023/02/11 05:36:30;;;;;;;;;37.00;32.00;;;;;5.76;44.41;99988.97;7707742;22;96516;-69
2023/02/11 05:39:37;;;;;;;;;38.50;33.00;;;;;5.74;44.23;99987.47;7734322;22;95993;-69
2023/02/11 05:42:40;;;;;;;;;41.75;35.00;;;;;5.81;44.01;100001.88;7735615;22;96425;-69
2023/02/11 05:45:43;;;;;;;;;38.40;33.40;;;;;5.89;44.15;100005.44;7735906;22;96721;-69
2023/02/11 05:48:46;;;;;;;;;39.40;32.00;;;;;5.93;44.14;100000.56;7707173;22;96869;-69
2023/02/11 05:51:50;;;;;;;;;44.60;33.60;;;;;5.95;44.09;100004.78;7734845;22;96982;-69
2023/02/11 05:54:55;;;;;;;;;32.75;30.00;;;;;5.99;44.11;99999.91;7734572;22;96862;-68
2023/02/11 05:57:58;;;;;;;;;38.00;32.50;;;;;5.88;44.20;99998.38;7734277;22;96451;-69
2023/02/11 06:01:01;;;;;;;;;43.00;36.00;;;;;5.89;44.08;100000.06;7734941;22;96674;-69
2023/02/11 06:04:05;;;;;;;;;38.60;33.00;;;;;5.98;43.67;100007.09;7734515;22;97637;-70
2023/02/11 06:07:08;;;;;;;;;37.80;32.20;;;;;6.04;43.82;100021.69;7734586;22;96869;-69
2023/02/11 06:10:13;;;;;;;;;44.80;37.80;;;;;6.11;43.64;100025.34;7733223;22;97536;-69
2023/02/11 06:13:17;;;;;;;;;45.00;36.40;;;;;6.20;43.21;100013.69;7679642;22;98518;-69
2023/02/11 06:16:20;;;;;;;;;38.40;32.40;;;;;6.20;43.39;100004.81;7707000;22;96399;-69
2023/02/11 06:19:24;;;;;;;;;44.00;35.40;;;;;6.18;43.40;99988.88;7707262;22;96540;-69
2023/02/11 06:22:27;;;;;;;;;41.67;35.67;;;;;6.07;43.71;99962.44;7681254;22;98258;-68
2023/02/11 06:25:32;;;;;;;;;35.00;32.00;;;;;5.90;43.80;99918.78;7733642;22;97836;-70
2023/02/11 06:28:36;;;;;;;;;37.00;31.75;;;;;5.83;44.06;99876.75;7680524;22;99057;-69
2023/02/11 06:31:43;;;;;;;;;43.40;35.00;;;;;5.76;44.11;99867.72;7732458;22;96821;-69
2023/02/11 06:34:47;;;;;;;;;38.20;32.80;;;;;5.58;44.38;99860.69;7706381;22;96684;-69
2023/02/11 06:37:52;;;;;;;;;42.00;35.00;;;;;5.62;44.35;99880.75;7734901;22;96330;-69
2023/02/11 06:40:57;;;;;;;;;36.00;32.00;;;;;5.61;44.71;99889.81;7732442;22;97197;-68
2023/02/11 06:44:00;;;;;;;;;35.25;30.00;;;;;5.70;44.32;99890.63;7733357;22;96424;-69
2023/02/11 06:47:04;;;;;;;;;36.20;31.60;;;;;5.66;44.42;99895.50;7733793;22;97114;-69
2023/02/11 06:50:11;;;;;;;;;34.50;31.00;;;;;5.81;44.39;99895.66;7734828;22;96066;-70
2023/02/11 06:53:15;;;;;;;;;36.40;32.00;;;;;5.82;44.52;99889.28;7708670;22;96653;-69
2023/02/11 06:56:23;;;;;;;;;37.00;31.75;;;;;5.91;44.44;99882.16;7682770;22;96727;-69
2023/02/11 06:59:26;;;;;;;;;41.40;32.40;;;;;5.86;44.17;99879.09;7708584;22;96355;-68
2023/02/11 07:02:31;;;;;;;;;42.00;33.00;;;;;6.09;43.89;99896.19;7707452;22;96443;-69
2023/02/11 07:05:35;;;;;;;;;37.00;32.00;;;;;6.31;43.44;99908.88;7707799;22;98603;-70
2023/02/11 07:08:41;;;;;;;;;34.80;31.40;;;;;6.38;42.83;99911.72;7734798;22;96378;-69
2023/02/11 07:11:45;;;;;;;;;30.75;27.75;;;;;6.58;42.54;99917.53;7707028;22;96599;-69
2023/02/11 07:14:49;;;;;;;;;30.75;28.75;;;;;6.72;42.14;99923.03;7681701;22;98607;-69
2023/02/11 07:17:52;;;;;;;;;31.20;27.80;;;;;6.84;42.04;99916.28;7735573;22;96348;-69
2023/02/11 07:20:55;;;;;;;;;31.40;28.60;;;;;6.91;41.87;99916.44;7735416;22;96808;-69
2023/02/11 07:23:59;;;;;;;;;34.40;30.00;;;;;6.90;41.85;99920.97;7735037;22;96351;-69
2023/02/11 07:27:03;;;;;;;;;32.00;29.00;;;;;6.97;41.66;99927.31;7708355;22;96426;-69
2023/02/11 07:30:08;;;;;;;;;31.25;29.00;;;;;6.94;41.86;99930.31;7735644;22;96790;-68
2023/02/11 07:33:12;;;;;;;;;32.60;29.40;;;;;7.01;41.53;99917.06;7734756;22;96786;-69
2023/02/11 07:36:16;;;;;;;;;31.80;30.00;;;;;7.14;41.36;99895.88;7680926;22;96574;-68
2023/02/11 07:39:20;;;;;;;;;32.80;30.40;;;;;7.18;41.44;99893.72;7706126;22;98540;-68
2023/02/11 07:42:25;;;;;;;;;39.75;34.75;;;;;7.18;41.21;99889.19;7732441;22;96396;-68
2023/02/11 07:45:28;;;;;;;;;35.00;31.00;;;;;7.25;41.11;99881.25;7704538;22;96598;-69
2023/02/11 07:48:32;;;;;;;;;38.80;33.00;;;;;7.30;41.03;99884.25;7681088;22;99078;-69
2023/02/11 07:51:35;;;;;;;;;38.00;33.00;;;;;7.46;40.86;99877.94;7734487;22;96555;-69
2023/02/11 07:54:38;;;;;;;;;43.00;35.00;;;;;7.80;40.43;99886.44;7681646;22;96604;-69
2023/02/11 07:57:43;;;;;;;;;44.60;35.60;;;;;8.31;39.55;99881.31;7707749;22;97014;-70
2023/02/11 08:00:46;;;;;;;;;40.60;35.00;;;;;8.91;38.26;99887.34;7734558;22;96478;-70
2023/02/11 08:03:49;;;;;;;;;45.00;35.20;;;;;9.76;36.17;99882.16;7735837;22;96403;-70
2023/02/11 08:06:55;;;;;;;;;47.00;37.00;;;;;10.94;34.51;99889.50;7707405;22;96593;-69
2023/02/11 08:10:01;;;;;;;;;41.00;35.00;;;;;12.28;32.30;99883.22;7708465;22;96653;-70
2023/02/11 08:13:05;;;;;;;;;42.50;35.75;;;;;13.83;29.66;99875.81;7735470;22;96364;-70
2023/02/11 08:16:10;;;;;;;;;41.40;35.00;;;;;14.48;28.03;99877.22;7682830;22;96582;-70
2023/02/11 08:19:15;;;;;;;;;42.20;34.40;;;;;15.11;27.79;99876.97;7707755;22;98376;-70
2023/02/11 08:22:18;;;;;;;;;40.60;35.00;;;;;15.74;25.80;99869.28;7708440;22;96661;-70
2023/02/11 08:25:21;;;;;;;;;37.60;33.00;;;;;16.64;25.29;99847.31;7735668;22;96327;-69
2023/02/11 08:28:26;;;;;;;;;44.20;35.00;;;;;17.53;23.77;99856.84;7708063;22;96526;-69
2023/02/11 08:31:33;;;;;;;;;42.20;34.00;;;;;18.91;22.62;99861.66;7706754;22;98597;-70
2023/02/11 08:34:36;;;;;;;;;43.00;34.00;;;;;20.23;21.10;99864.78;7735706;22;96849;-69
2023/02/11 08:37:40;;;;;;;;;44.60;36.00;;;;;21.53;20.17;99865.91;7735283;22;96419;-70
2023/02/11 08:40:43;;;;;;;;;42.80;36.00;;;;;22.65;18.83;99852.28;7681370;22;99160;-69
2023/02/11 08:43:48;;;;;;;;;42.00;35.20;;;;;23.49;18.25;99857.84;7735787;22;96367;-71
2023/02/11 08:46:52;;;;;;;;;39.25;33.25;;;;;24.22;16.91;99860.72;7734844;22;96151;-70
2023/02/11 08:49:56;;;;;;;;;40.40;33.00;;;;;24.41;16.92;99866.34;7708410;22;96233;-71
2023/02/11 08:52:59;;;;;;;;;35.50;32.00;;;;;25.15;16.21;99865.06;7734768;22;96813;-69
2023/02/11 08:56:02;;;;;;;;;35.20;31.60;;;;;25.75;15.50;99872.63;7735827;22;96435;-70
2023/02/11 08:59:09;;;;;;;;;35.20;31.60;;;;;26.76;14.99;99858.28;7735846;22;97560;-71
2023/02/11 09:02:14;;;;;;;;;34.50;30.50;;;;;27.37;14.28;99861.50;7708809;22;98401;-70
2023/02/11 09:05:17;;;;;;;;;35.20;31.80;;;;;28.39;13.63;99857.28;7682178;22;96978;-70
2023/02/11 09:08:21;;;;;;;;;36.00;31.00;;;;;29.04;13.30;99843.63;7736404;22;96871;-70
2023/02/11 09:11:28;;;;;;;;;32.00;29.40;;;;;29.52;12.10;99851.13;7708002;22;96487;-70
2023/02/11 09:14:32;;;;;;;;;33.00;29.00;;;;;29.67;12.26;99856.25;7708521;22;96651;-70
2023/02/11 09:17:36;;;;;;;;;34.00;27.20;;;;;29.81;11.85;99851.34;7735793;22;96177;-70
2023/02/11 09:20:39;;;;;;;;;29.00;26.20;;;;;29.76;12.01;99848.75;7735836;22;96951;-70
2023/02/11 09:23:43;;;;;;;;;31.80;27.40;;;;;29.74;12.00;99853.00;7708819;22;96407;-70
2023/02/11 09:26:48;;;;;;;;;30.00;29.00;;;;;29.12;12.49;99842.03;7735999;22;96488;-70
2023/02/11 09:29:53;;;;;;;;;25.40;25.00;;;;;26.60;13.84;99821.78;7736407;22;96242;-69
2023/02/11 09:32:56;;;;;;;;;29.00;27.00;;;;;24.23;15.62;99820.22;7707172;22;96556;-71
2023/02/11 09:36:01;;;;;;;;;31.50;26.50;;;;;21.95;17.58;99840.19;7735433;22;96344;-70
2023/02/11 09:39:07;;;;;;;;;34.75;30.50;;;;;20.10;19.26;99839.75;7734734;22;96233;-70
2023/02/11 09:42:36;;;;;;;;;31.25;28.25;;;;;18.53;20.86;99840.56;7736008;22;96449;-69
2023/02/11 09:45:41;;;;;;;;;37.60;31.60;;;;;17.21;22.41;99835.47;7708352;22;97725;-69
2023/02/11 09:48:48;;;;;;;;;32.60;29.40;;;;;16.29;23.85;99842.66;7707923;22;98593;-69
2023/02/11 09:51:58;;;;;;;;;33.75;30.75;;;;;15.44;24.81;99846.69;7707646;22;96593;-70
2023/02/11 09:55:05;;;;;;;;;29.20;26.40;;;;;14.76;25.79;99848.78;7734865;22;97053;-69
2023/02/11 09:58:13;;;;;;;;;27.00;23.40;;;;;14.21;26.60;99845.94;7735719;22;96599;-69
2023/02/11 10:01:30;;;;;;;;;30.00;28.50;;;;;13.73;26.94;99827.53;7708213;22;96695;-69
2023/02/11 10:04:57;;;;;;;;;29.40;27.40;;;;;13.53;27.56;99840.41;7708574;22;96617;-69
2023/02/11 10:08:11;;;;;;;;;31.40;30.00;;;;;13.44;27.95;99831.66;7707680;22;96918;-69
2023/02/11 10:11:26;;;;;;;;;30.00;28.25;;;;;13.07;28.36;99842.47;7707866;22;96272;-69
2023/02/11 10:14:55;;;;;;;;;32.00;29.60;;;;;13.07;28.50;99837.03;7708152;22;96678;-69
2023/02/11 10:18:34;;;;;;;;;28.75;25.00;;;;;12.48;29.25;99830.78;7683724;22;96795;-69
2023/02/11 10:21:46;;;;;;;;;28.40;27.40;;;;;12.45;29.50;99827.66;7708785;22;97034;-69
2023/02/11 10:24:57;;;;;;;;;30.60;28.00;;;;;12.28;30.04;99810.19;7709527;22;96298;-69
2023/02/11 10:28:10;;;;;;;;;33.00;30.00;;;;;12.14;30.53;99804.81;7736097;22;96443;-71
2023/02/11 10:31:16;;;;;;;;;29.00;26.00;;;;;12.01;30.55;99804.84;7735999;22;96880;-69
2023/02/11 10:34:21;;;;;;;;;28.60;26.60;;;;;11.83;31.13;99801.91;7737407;22;96937;-69
2023/02/11 10:37:26;;;;;;;;;36.00;32.00;;;;;11.76;30.95;99795.69;7710405;22;96556;-67
2023/02/11 10:40:31;;;;;;;;;30.80;28.00;;;;;11.64;31.61;99794.59;7710700;22;98522;-67
2023/02/11 10:43:35;;;;;;;;;28.80;26.20;;;;;11.49;32.08;99778.56;7710528;22;96410;-67
2023/02/11 10:46:38;;;;;;;;;31.20;28.80;;;;;11.32;31.82;99769.22;7737834;22;96292;-67
2023/02/11 10:49:45;;;;;;;;;28.60;26.60;;;;;11.34;31.90;99755.53;7737019;22;96323;-66
2023/02/11 10:52:48;;;;;;;;;34.75;29.75;;;;;11.63;31.50;99755.13;7708854;22;96868;-66
2023/02/11 10:55:54;;;;;;;;;34.00;31.20;;;;;12.23;30.36;99737.84;7708486;22;96600;-67
2023/02/11 10:59:01;;;;;;;;;29.60;27.80;;;;;12.73;30.13;99740.78;7737877;22;96191;-67
2023/02/11 11:02:16;;;;;;;;;36.00;31.40;;;;;13.00;29.62;99718.78;7709722;22;96244;-67
2023/02/11 11:05:28;;;;;;;;;31.40;28.00;;;;;13.47;28.68;99705.81;7710481;22;96638;-67
2023/02/11 11:08:41;;;;;;;;;31.60;28.00;;;;;14.38;27.80;99691.59;7708895;22;97204;-67
2023/02/11 11:11:53;;;;;;;;;30.00;26.80;;;;;15.72;26.30;99681.09;7708548;22;96578;-68
2023/02/11 11:14:58;;;;;;;;;33.20;30.00;;;;;15.94;25.31;99679.44;7735698;22;96226;-68
2023/02/11 11:18:15;;;;;;;;;30.75;28.75;;;;;15.97;25.17;99675.44;7708569;22;96510;-67
2023/02/11 11:21:30;;;;;;;;;31.50;29.50;;;;;15.78;25.60;99661.13;7736939;22;96355;-67
2023/02/11 11:24:45;;;;;;;;;29.00;26.50;;;;;15.83;25.74;99652.25;7737351;22;96359;-68
2023/02/11 11:27:50;;;;;;;;;31.80;28.20;;;;;15.89;25.10;99652.13;7736900;22;96195;-68
2023/02/11 11:30:57;;;;;;;;;31.60;28.60;;;;;16.73;24.70;99656.09;7737115;22;96400;-67
2023/02/11 11:34:13;;;;;;;;;33.00;30.00;;;;;16.86;24.60;99650.34;7737410;22;96343;-67
2023/02/11 11:37:26;;;;;;;;;32.75;30.00;;;;;17.01;24.38;99668.03;7736799;22;96398;-67
2023/02/11 11:40:31;;;;;;;;;28.40;26.40;;;;;16.92;24.21;99664.91;7716496;22;96389;-68
2023/02/11 11:43:36;;;;;;;;;31.20;29.20;;;;;16.69;24.54;99659.56;7738063;22;96406;-68
2023/02/11 11:46:44;;;;;;;;;31.00;28.00;;;;;16.85;24.62;99651.44;7736645;22;96429;-69
2023/02/11 11:49:55;;;;;;;;;34.00;29.40;;;;;16.80;24.30;99651.34;7737314;22;96201;-69
2023/02/11 11:53:05;;;;;;;;;31.75;29.00;;;;;16.55;24.86;99666.31;7736723;22;96252;-69
2023/02/11 11:56:13;;;;;;;;;32.40;28.40;;;;;16.07;25.60;99653.06;7709878;22;97619;-69
2023/02/11 11:59:16;;;;;;;;;35.00;30.00;;;;;15.34;26.16;99676.06;7736874;22;96949;-69
2023/02/11 12:02:47;;;;;;;;;30.50;29.50;;;;;14.38;27.11;99680.72;7708932;22;96217;-69
2023/02/11 12:06:07;;;;;;;;;29.50;27.50;;;;;13.40;27.99;99642.72;7707409;22;96265;-69
2023/02/11 12:09:25;;;;;;;;;30.00;27.40;;;;;12.90;29.33;99661.59;7735073;22;96355;-68
2023/02/11 12:12:40;;;;;;;;;30.40;27.40;;;;;12.46;30.08;99675.16;7736935;22;96212;-69
2023/02/11 12:15:53;;;;;;;;;32.20;28.60;;;;;12.42;30.83;99680.16;7708586;22;97021;-68
2023/02/11 12:19:27;;;;;;;;;31.50;28.50;;;;;12.33;31.36;99676.03;7709797;22;98929;-69
2023/02/11 12:22:41;;;;;;;;;35.00;31.00;;;;;12.17;31.66;99679.19;7707334;22;96469;-69
2023/02/11 12:25:55;;;;;;;;;34.80;30.20;;;;;11.98;31.83;99694.44;7709127;22;96382;-70
2023/02/11 12:29:09;;;;;;;;;29.50;28.50;;;;;11.73;32.83;99695.31;7737128;22;96173;-69
2023/02/11 12:32:25;;;;;;;;;33.00;30.00;;;;;11.61;34.15;99701.31;7708620;22;96785;-69
2023/02/11 12:35:41;;;;;;;;;35.50;31.75;;;;;11.61;34.24;99698.63;7737132;22;97405;-69
2023/02/11 12:39:04;;;;;;;;;35.00;30.00;;;;;11.58;34.62;99707.13;7709470;22;98242;-69
2023/02/11 12:45:59;;;;;;;;;35.50;31.50;;;;;10.86;35.96;99637.72;7735643;22;96240;-70
2023/02/11 12:49:21;;;;;;;;;40.40;32.00;;;;;10.95;36.43;99669.91;7706531;22;96462;-69
2023/02/11 12:52:44;;;;;;;;;37.60;32.00;;;;;10.72;36.88;99651.41;7735691;22;96295;-70
2023/02/11 12:55:51;;;;;;;;;35.25;32.00;;;;;10.47;37.93;99653.81;7736697;22;96287;-69
2023/02/11 12:58:59;;;;;;;;;41.00;34.00;;;;;10.11;38.78;99639.75;7736051;22;96526;-70
2023/02/11 13:02:11;;;;;;;;;41.00;35.00;;;;;10.02;39.13;99620.22;7709115;22;96788;-69
2023/02/11 13:05:23;;;;;;;;;38.20;33.00;;;;;9.80;39.11;99592.56;7709542;22;96451;-69
2023/02/11 13:08:31;;;;;;;;;35.00;30.75;;;;;9.72;40.16;99616.16;7736524;22;96303;-70
2023/02/11 13:11:39;;;;;;;;;40.50;33.00;;;;;9.67;40.45;99618.59;7708845;22;96363;-69
2023/02/11 13:14:44;;;;;;;;;37.60;31.60;;;;;9.80;39.83;99608.72;7708369;22;99198;-69
2023/02/11 13:17:59;;;;;;;;;37.40;32.00;;;;;9.72;40.07;99608.06;7683923;22;96256;-70
2023/02/11 13:21:22;;;;;;;;;35.40;30.00;;;;;9.79;40.53;99607.06;7736289;22;96182;-70
2023/02/11 13:24:34;;;;;;;;;35.00;31.00;;;;;9.89;40.86;99621.00;7709086;22;96620;-70
2023/02/11 13:27:45;;;;;;;;;41.00;33.40;;;;;9.82;41.24;99624.69;7736177;22;96368;-70
2023/02/11 13:31:00;;;;;;;;;39.40;33.40;;;;;9.82;41.50;99622.81;7683327;22;96582;-70
2023/02/11 13:34:23;;;;;;;;;36.50;32.00;;;;;9.72;41.93;99590.06;7735466;22;96212;-68
2023/02/11 13:37:34;;;;;;;;;37.50;33.00;;;;;9.54;43.67;99582.47;7708864;22;98488;-69
2023/02/11 13:40:39;;;;;;;;;35.00;30.40;;;;;9.51;43.47;99571.28;7734355;22;96406;-69
2023/02/11 13:43:57;;;;;;;;;42.20;32.00;;;;;9.43;43.76;99584.91;7734783;22;96522;-69
2023/02/11 13:47:18;;;;;;;;;37.00;32.00;;;;;9.44;43.94;99571.22;7735905;22;96085;-70
2023/02/11 13:50:25;;;;;;;;;35.20;31.00;;;;;9.49;43.92;99554.50;7736459;22;96422;-69
2023/02/11 13:53:29;;;;;;;;;37.00;31.80;;;;;9.33;44.27;99525.22;7708802;22;96266;-69
2023/02/11 13:56:35;;;;;;;;;41.33;32.00;;;;;9.21;44.56;99516.88;7734816;22;96198;-70
2023/02/11 13:59:47;;;;;;;;;40.00;33.60;;;;;9.30;44.36;99522.91;7734347;22;96188;-69
2023/02/11 14:10:51;;;;;;;;;42.50;35.00;;;;;9.69;43.57;99568.06;7732632;22;96504;-70
2023/02/11 14:14:14;;;;;;;;;42.20;33.00;;;;;9.59;43.78;99568.41;7732691;22;96254;-69
2023/02/11 14:17:19;;;;;;;;;40.00;33.00;;;;;9.56;43.66;99552.69;7706746;22;96392;-69
2023/02/11 14:20:44;;;;;;;;;43.00;35.00;;;;;9.64;43.95;99584.81;7705614;22;96676;-69
2023/02/11 14:23:47;;;;;;;;;39.60;34.40;;;;;9.69;43.93;99600.38;7735704;22;96190;-70
2023/02/11 14:26:57;;;;;;;;;43.25;34.25;;;;;9.73;43.54;99596.25;7736145;22;96166;-69
2023/02/11 14:30:20;;;;;;;;;38.60;33.00;;;;;9.70;43.93;99607.41;7734553;22;96281;-69
2023/02/11 14:33:52;;;;;;;;;40.00;35.00;;;;;9.83;43.41;99619.09;7733405;22;96248;-69
2023/02/11 14:37:09;;;;;;;;;37.67;33.33;;;;;9.76;43.76;99630.88;7705835;22;96255;-70
2023/02/11 14:40:24;;;;;;;;;42.50;33.50;;;;;9.65;44.02;99626.88;7706902;22;96491;-70
2023/02/11 14:43:33;;;;;;;;;43.75;34.25;;;;;9.65;44.08;99620.66;7706350;22;97190;-69